sensor_id;sensor_type;location;lat;lon;timestamp;temperature;humidity
7814;DHT22;3952;48.364;16.022;2023-03-01T00:01:03;-0.80;99.90
7814;DHT22;3952;48.364;16.022;2023-03-01T00:03:31;-0.90;99.90
7814;DHT22;3952;48.364;16.022;2023-03-01T00:05:58;-0.90;99.90
7814;DHT22;3952;48.364;16.022;2023-03-01T00:08:26;-1.00;99.90
7814;DHT22;3952;48.364;16.022;2023-03-01T00:11:02;-1.00;99.90
7814;DHT22;3952;48.364;16.022;2023-03-01T00:13:30;-1.00;99.90
7814;DHT22;3952;48.364;16.022;2023-03-01T00:15:58;-1.00;99.90
7814;DHT22;3952;48.364;16.022;2023-03-01T00:18:25;-1.00;99.90
7814;DHT22;3952;48.364;16.022;2023-03-01T00:20:53;-1.00;99.90
7814;DHT22;3952;48.364;16.022;2023-03-01T00:23:21;-1.00;99.90
7814;DHT22;3952;48.364;16.022;2023-03-01T00:25:49;-0.90;99.90
7814;DHT22;3952;48.364;16.022;2023-03-01T00:28:18;-0.90;99.90
7814;DHT22;3952;48.364;16.022;2023-03-01T00:30:46;-1.00;99.90
7814;DHT22;3952;48.364;16.022;2023-03-01T00:33:13;-1.00;99.90
7814;DHT22;3952;48.364;16.022;2023-03-01T00:35:40;-1.00;99.90
7814;DHT22;3952;48.364;16.022;2023-03-01T00:38:08;-1.00;99.90
7814;DHT22;3952;48.364;16.022;2023-03-01T00:40:36;-1.00;99.90
7814;DHT22;3952;48.364;16.022;2023-03-01T00:43:04;-1.00;99.90
7814;DHT22;3952;48.364;16.022;2023-03-01T00:45:33;-1.10;99.90
7814;DHT22;3952;48.364;16.022;2023-03-01T00:48:00;-1.10;99.90
7814;DHT22;3952;48.364;16.022;2023-03-01T00:50:27;-1.20;99.90
7814;DHT22;3952;48.364;16.022;2023-03-01T00:52:55;-1.30;99.90
7814;DHT22;3952;48.364;16.022;2023-03-01T00:55:23;-1.40;99.90
7814;DHT22;3952;48.364;16.022;2023-03-01T00:57:51;-1.40;99.90
7814;DHT22;3952;48.364;16.022;2023-03-01T01:00:19;-1.40;99.90
7814;DHT22;3952;48.364;16.022;2023-03-01T01:02:48;-1.40;99.90
7814;DHT22;3952;48.364;16.022;2023-03-01T01:05:15;-1.50;99.90
7814;DHT22;3952;48.364;16.022;2023-03-01T01:07:46;-1.40;99.90
7814;DHT22;3952;48.364;16.022;2023-03-01T01:10:15;-1.40;99.90
7814;DHT22;3952;48.364;16.022;2023-03-01T01:12:44;-1.40;99.90
7814;DHT22;3952;48.364;16.022;2023-03-01T01:15:11;-1.50;99.90
7814;DHT22;3952;48.364;16.022;2023-03-01T01:17:42;-1.50;99.90
7814;DHT22;3952;48.364;16.022;2023-03-01T01:20:11;-1.50;99.90
7814;DHT22;3952;48.364;16.022;2023-03-01T01:22:39;-1.50;99.90
7814;DHT22;3952;48.364;16.022;2023-03-01T01:25:07;-1.50;99.90
7814;DHT22;3952;48.364;16.022;2023-03-01T01:27:34;-1.60;99.90
7814;DHT22;3952;48.364;16.022;2023-03-01T01:30:01;-1.60;99.90
7814;DHT22;3952;48.364;16.022;2023-03-01T01:32:28;-1.70;99.90
7814;DHT22;3952;48.364;16.022;2023-03-01T01:34:56;-1.70;99.90
7814;DHT22;3952;48.364;16.022;2023-03-01T01:37:24;-1.80;99.90
7814;DHT22;3952;48.364;16.022;2023-03-01T01:39:57;-1.80;99.90
7814;DHT22;3952;48.364;16.022;2023-03-01T01:42:25;-1.90;99.90
7814;DHT22;3952;48.364;16.022;2023-03-01T01:48:06;-1.80;99.90
7814;DHT22;3952;48.364;16.022;2023-03-01T01:50:39;-1.80;99.90
7814;DHT22;3952;48.364;16.022;2023-03-01T01:53:11;-1.90;99.90
7814;DHT22;3952;48.364;16.022;2023-03-01T01:55:42;-2.00;99.90
7814;DHT22;3952;48.364;16.022;2023-03-01T01:58:11;-2.00;99.90
7814;DHT22;3952;48.364;16.022;2023-03-01T02:00:41;-2.00;99.90
7814;DHT22;3952;48.364;16.022;2023-03-01T02:03:12;-2.00;99.90
7814;DHT22;3952;48.364;16.022;2023-03-01T02:05:47;-2.00;99.90
7814;DHT22;3952;48.364;16.022;2023-03-01T02:08:19;-2.00;99.90
7814;DHT22;3952;48.364;16.022;2023-03-01T02:10:54;-2.00;99.90
7814;DHT22;3952;48.364;16.022;2023-03-01T02:13:22;-1.90;99.90
7814;DHT22;3952;48.364;16.022;2023-03-01T02:15:50;-1.90;99.90
7814;DHT22;3952;48.364;16.022;2023-03-01T02:18:19;-1.90;99.90
7814;DHT22;3952;48.364;16.022;2023-03-01T02:20:56;-1.90;99.90
7814;DHT22;3952;48.364;16.022;2023-03-01T02:23:28;-1.90;99.90
7814;DHT22;3952;48.364;16.022;2023-03-01T02:26:01;-2.00;99.90
7814;DHT22;3952;48.364;16.022;2023-03-01T02:28:33;-2.00;99.90
7814;DHT22;3952;48.364;16.022;2023-03-01T02:31:02;-2.00;99.90
7814;DHT22;3952;48.364;16.022;2023-03-01T02:33:47;-2.00;99.90
7814;DHT22;3952;48.364;16.022;2023-03-01T02:36:17;-2.00;99.90
7814;DHT22;3952;48.364;16.022;2023-03-01T02:38:47;-2.00;99.90
7814;DHT22;3952;48.364;16.022;2023-03-01T02:41:16;-2.10;99.90
7814;DHT22;3952;48.364;16.022;2023-03-01T02:43:45;-2.10;99.90
7814;DHT22;3952;48.364;16.022;2023-03-01T02:46:18;-2.10;99.90
7814;DHT22;3952;48.364;16.022;2023-03-01T02:48:48;-2.10;99.90
7814;DHT22;3952;48.364;16.022;2023-03-01T02:51:34;-2.10;99.90
7814;DHT22;3952;48.364;16.022;2023-03-01T02:54:15;-2.00;99.90
7814;DHT22;3952;48.364;16.022;2023-03-01T02:56:45;-2.00;99.90
7814;DHT22;3952;48.364;16.022;2023-03-01T02:59:18;-2.00;99.90
7814;DHT22;3952;48.364;16.022;2023-03-01T03:01:46;-2.00;99.90
7814;DHT22;3952;48.364;16.022;2023-03-01T03:04:15;-1.90;99.90
7814;DHT22;3952;48.364;16.022;2023-03-01T03:06:44;-1.90;99.90
7814;DHT22;3952;48.364;16.022;2023-03-01T03:09:12;-1.90;99.90
7814;DHT22;3952;48.364;16.022;2023-03-01T03:11:40;-1.80;99.90
7814;DHT22;3952;48.364;16.022;2023-03-01T03:14:08;-1.80;99.90
7814;DHT22;3952;48.364;16.022;2023-03-01T03:16:42;-1.80;99.90
7814;DHT22;3952;48.364;16.022;2023-03-01T03:19:09;-1.70;99.90
7814;DHT22;3952;48.364;16.022;2023-03-01T03:21:37;-1.70;99.90
7814;DHT22;3952;48.364;16.022;2023-03-01T03:24:04;-1.70;99.90
7814;DHT22;3952;48.364;16.022;2023-03-01T03:26:32;-1.60;99.90
7814;DHT22;3952;48.364;16.022;2023-03-01T03:28:59;-1.60;99.90
7814;DHT22;3952;48.364;16.022;2023-03-01T03:31:26;-1.50;99.90
7814;DHT22;3952;48.364;16.022;2023-03-01T03:33:55;-1.50;99.90
7814;DHT22;3952;48.364;16.022;2023-03-01T03:36:25;-1.40;99.90
7814;DHT22;3952;48.364;16.022;2023-03-01T03:38:52;-1.30;99.90
7814;DHT22;3952;48.364;16.022;2023-03-01T03:41:19;-1.20;99.90
7814;DHT22;3952;48.364;16.022;2023-03-01T03:43:46;-1.20;99.90
7814;DHT22;3952;48.364;16.022;2023-03-01T03:46:14;-1.20;99.90
7814;DHT22;3952;48.364;16.022;2023-03-01T03:48:44;-1.10;99.90
7814;DHT22;3952;48.364;16.022;2023-03-01T03:51:14;-1.10;99.90
7814;DHT22;3952;48.364;16.022;2023-03-01T03:53:42;-1.10;99.90
7814;DHT22;3952;48.364;16.022;2023-03-01T03:56:10;-1.00;99.90
7814;DHT22;3952;48.364;16.022;2023-03-01T03:58:37;-1.00;99.90
7814;DHT22;3952;48.364;16.022;2023-03-01T04:01:05;-1.10;99.90
7814;DHT22;3952;48.364;16.022;2023-03-01T04:03:33;-1.00;99.90
7814;DHT22;3952;48.364;16.022;2023-03-01T04:06:02;-1.00;99.90
7814;DHT22;3952;48.364;16.022;2023-03-01T04:08:31;-0.90;99.90
7814;DHT22;3952;48.364;16.022;2023-03-01T04:11:00;-0.90;99.90
7814;DHT22;3952;48.364;16.022;2023-03-01T04:13:48;-0.80;99.90
7814;DHT22;3952;48.364;16.022;2023-03-01T04:16:15;-0.80;99.90
7814;DHT22;3952;48.364;16.022;2023-03-01T04:18:43;-0.70;99.90
7814;DHT22;3952;48.364;16.022;2023-03-01T04:21:11;-0.70;99.90
7814;DHT22;3952;48.364;16.022;2023-03-01T04:23:40;-0.60;99.90
7814;DHT22;3952;48.364;16.022;2023-03-01T04:26:08;-0.60;99.90
7814;DHT22;3952;48.364;16.022;2023-03-01T04:28:37;-0.60;99.90
7814;DHT22;3952;48.364;16.022;2023-03-01T04:31:08;-0.60;99.90
7814;DHT22;3952;48.364;16.022;2023-03-01T04:33:40;-0.70;99.90
7814;DHT22;3952;48.364;16.022;2023-03-01T04:36:09;-0.70;99.90
7814;DHT22;3952;48.364;16.022;2023-03-01T04:38:37;-0.60;99.90
7814;DHT22;3952;48.364;16.022;2023-03-01T04:41:09;-0.70;99.90
7814;DHT22;3952;48.364;16.022;2023-03-01T04:43:37;-0.70;99.90
7814;DHT22;3952;48.364;16.022;2023-03-01T04:46:06;-0.70;99.90
7814;DHT22;3952;48.364;16.022;2023-03-01T04:48:35;-0.70;99.90
7814;DHT22;3952;48.364;16.022;2023-03-01T04:51:03;-0.80;99.90
7814;DHT22;3952;48.364;16.022;2023-03-01T04:53:31;-0.80;99.90
7814;DHT22;3952;48.364;16.022;2023-03-01T04:55:59;-0.80;99.90
7814;DHT22;3952;48.364;16.022;2023-03-01T04:58:28;-0.80;99.90
7814;DHT22;3952;48.364;16.022;2023-03-01T05:00:56;-0.70;99.90
7814;DHT22;3952;48.364;16.022;2023-03-01T05:03:23;-0.70;99.90
7814;DHT22;3952;48.364;16.022;2023-03-01T05:05:51;-0.70;99.90
7814;DHT22;3952;48.364;16.022;2023-03-01T05:08:19;-0.60;99.90
7814;DHT22;3952;48.364;16.022;2023-03-01T05:10:49;-0.60;99.90
7814;DHT22;3952;48.364;16.022;2023-03-01T05:13:18;-0.50;99.90
7814;DHT22;3952;48.364;16.022;2023-03-01T05:15:54;-0.50;99.90
7814;DHT22;3952;48.364;16.022;2023-03-01T05:18:21;-0.50;99.90
7814;DHT22;3952;48.364;16.022;2023-03-01T05:20:51;-0.40;99.90
7814;DHT22;3952;48.364;16.022;2023-03-01T05:23:18;-0.40;99.90
7814;DHT22;3952;48.364;16.022;2023-03-01T05:25:45;-0.40;99.90
7814;DHT22;3952;48.364;16.022;2023-03-01T05:28:13;-0.40;99.90
7814;DHT22;3952;48.364;16.022;2023-03-01T05:30:41;-0.40;99.90
7814;DHT22;3952;48.364;16.022;2023-03-01T05:33:10;-0.30;99.90
7814;DHT22;3952;48.364;16.022;2023-03-01T05:35:41;-0.30;99.90
7814;DHT22;3952;48.364;16.022;2023-03-01T05:38:09;-0.30;99.90
7814;DHT22;3952;48.364;16.022;2023-03-01T05:40:39;-0.20;99.90
7814;DHT22;3952;48.364;16.022;2023-03-01T05:43:06;-0.20;99.90
7814;DHT22;3952;48.364;16.022;2023-03-01T05:45:36;-0.20;99.90
7814;DHT22;3952;48.364;16.022;2023-03-01T05:48:04;-0.20;99.90
7814;DHT22;3952;48.364;16.022;2023-03-01T05:50:34;-0.20;99.90
7814;DHT22;3952;48.364;16.022;2023-03-01T05:53:04;-0.20;99.90
7814;DHT22;3952;48.364;16.022;2023-03-01T05:55:33;-0.20;99.90
7814;DHT22;3952;48.364;16.022;2023-03-01T05:58:02;-0.20;99.90
7814;DHT22;3952;48.364;16.022;2023-03-01T06:00:31;-0.20;99.90
7814;DHT22;3952;48.364;16.022;2023-03-01T06:02:59;-0.10;99.90
7814;DHT22;3952;48.364;16.022;2023-03-01T06:05:27;-0.10;99.90
7814;DHT22;3952;48.364;16.022;2023-03-01T06:07:59;-0.10;99.90
7814;DHT22;3952;48.364;16.022;2023-03-01T06:10:26;0.00;99.90
7814;DHT22;3952;48.364;16.022;2023-03-01T06:12:54;0.00;99.90
7814;DHT22;3952;48.364;16.022;2023-03-01T06:15:21;0.10;99.90
7814;DHT22;3952;48.364;16.022;2023-03-01T06:17:53;0.10;99.90
7814;DHT22;3952;48.364;16.022;2023-03-01T06:20:24;0.20;99.90
7814;DHT22;3952;48.364;16.022;2023-03-01T06:22:52;0.20;99.90
7814;DHT22;3952;48.364;16.022;2023-03-01T06:25:22;0.20;99.90
7814;DHT22;3952;48.364;16.022;2023-03-01T06:27:50;0.30;99.90
7814;DHT22;3952;48.364;16.022;2023-03-01T06:30:20;0.30;99.90
7814;DHT22;3952;48.364;16.022;2023-03-01T06:32:47;-0.30;99.90
7814;DHT22;3952;48.364;16.022;2023-03-01T06:35:16;0.30;99.90
7814;DHT22;3952;48.364;16.022;2023-03-01T06:37:44;0.40;99.90
7814;DHT22;3952;48.364;16.022;2023-03-01T06:40:13;0.40;99.90
7814;DHT22;3952;48.364;16.022;2023-03-01T06:42:43;0.50;99.90
7814;DHT22;3952;48.364;16.022;2023-03-01T06:45:11;0.50;99.90
7814;DHT22;3952;48.364;16.022;2023-03-01T06:47:38;0.60;99.90
7814;DHT22;3952;48.364;16.022;2023-03-01T06:50:06;0.60;99.90
7814;DHT22;3952;48.364;16.022;2023-03-01T06:52:33;0.60;99.90
7814;DHT22;3952;48.364;16.022;2023-03-01T06:55:00;0.70;99.90
7814;DHT22;3952;48.364;16.022;2023-03-01T06:57:27;0.70;99.90
7814;DHT22;3952;48.364;16.022;2023-03-01T06:59:56;0.80;99.90
7814;DHT22;3952;48.364;16.022;2023-03-01T07:02:23;0.80;99.90
7814;DHT22;3952;48.364;16.022;2023-03-01T07:04:52;0.90;99.90
7814;DHT22;3952;48.364;16.022;2023-03-01T07:07:19;1.00;99.90
7814;DHT22;3952;48.364;16.022;2023-03-01T07:09:48;1.00;99.90
7814;DHT22;3952;48.364;16.022;2023-03-01T07:12:15;1.10;99.90
7814;DHT22;3952;48.364;16.022;2023-03-01T07:14:44;1.10;99.90
7814;DHT22;3952;48.364;16.022;2023-03-01T07:17:13;1.20;99.90
7814;DHT22;3952;48.364;16.022;2023-03-01T07:19:40;1.20;99.90
7814;DHT22;3952;48.364;16.022;2023-03-01T07:22:07;1.30;99.90
7814;DHT22;3952;48.364;16.022;2023-03-01T07:24:35;1.30;99.90
7814;DHT22;3952;48.364;16.022;2023-03-01T07:27:02;1.30;99.90
7814;DHT22;3952;48.364;16.022;2023-03-01T07:29:29;1.40;99.90
7814;DHT22;3952;48.364;16.022;2023-03-01T07:31:57;1.40;99.90
7814;DHT22;3952;48.364;16.022;2023-03-01T07:34:25;1.50;99.90
7814;DHT22;3952;48.364;16.022;2023-03-01T07:36:53;1.50;99.90
7814;DHT22;3952;48.364;16.022;2023-03-01T07:39:20;1.50;99.90
7814;DHT22;3952;48.364;16.022;2023-03-01T07:41:48;1.60;99.90
7814;DHT22;3952;48.364;16.022;2023-03-01T07:44:15;1.70;99.90
7814;DHT22;3952;48.364;16.022;2023-03-01T07:46:43;1.60;99.90
7814;DHT22;3952;48.364;16.022;2023-03-01T07:49:10;1.60;99.90
7814;DHT22;3952;48.364;16.022;2023-03-01T07:51:39;1.70;99.90
7814;DHT22;3952;48.364;16.022;2023-03-01T07:54:07;1.70;99.90
7814;DHT22;3952;48.364;16.022;2023-03-01T07:56:35;1.70;99.90
7814;DHT22;3952;48.364;16.022;2023-03-01T07:59:02;1.80;99.90
7814;DHT22;3952;48.364;16.022;2023-03-01T08:01:29;1.80;99.90
7814;DHT22;3952;48.364;16.022;2023-03-01T08:03:57;1.90;99.90
7814;DHT22;3952;48.364;16.022;2023-03-01T08:06:24;1.90;99.90
7814;DHT22;3952;48.364;16.022;2023-03-01T08:08:53;1.90;99.90
7814;DHT22;3952;48.364;16.022;2023-03-01T08:11:21;2.00;99.90
7814;DHT22;3952;48.364;16.022;2023-03-01T08:13:49;2.00;99.90
7814;DHT22;3952;48.364;16.022;2023-03-01T08:16:16;2.00;99.90
7814;DHT22;3952;48.364;16.022;2023-03-01T08:18:43;2.10;99.90
7814;DHT22;3952;48.364;16.022;2023-03-01T08:21:13;2.30;99.90
7814;DHT22;3952;48.364;16.022;2023-03-01T08:23:44;2.70;99.90
7814;DHT22;3952;48.364;16.022;2023-03-01T08:26:14;3.20;99.90
7814;DHT22;3952;48.364;16.022;2023-03-01T08:28:42;3.70;99.90
7814;DHT22;3952;48.364;16.022;2023-03-01T08:31:17;4.20;99.90
7814;DHT22;3952;48.364;16.022;2023-03-01T08:33:46;4.40;99.90
7814;DHT22;3952;48.364;16.022;2023-03-01T08:36:17;4.40;99.90
7814;DHT22;3952;48.364;16.022;2023-03-01T08:38:47;4.40;99.90
7814;DHT22;3952;48.364;16.022;2023-03-01T08:41:15;4.30;99.90
7814;DHT22;3952;48.364;16.022;2023-03-01T08:43:43;4.20;99.90
7814;DHT22;3952;48.364;16.022;2023-03-01T08:46:11;4.20;99.90
7814;DHT22;3952;48.364;16.022;2023-03-01T08:48:39;4.20;99.90
7814;DHT22;3952;48.364;16.022;2023-03-01T08:51:16;4.10;99.90
7814;DHT22;3952;48.364;16.022;2023-03-01T08:53:44;4.10;99.90
7814;DHT22;3952;48.364;16.022;2023-03-01T08:56:35;4.10;99.90
7814;DHT22;3952;48.364;16.022;2023-03-01T08:59:02;4.00;99.90
7814;DHT22;3952;48.364;16.022;2023-03-01T09:01:30;4.00;99.90
7814;DHT22;3952;48.364;16.022;2023-03-01T09:03:58;4.00;99.90
7814;DHT22;3952;48.364;16.022;2023-03-01T09:06:25;3.90;99.90
7814;DHT22;3952;48.364;16.022;2023-03-01T09:08:52;4.00;99.90
7814;DHT22;3952;48.364;16.022;2023-03-01T09:11:21;4.00;99.90
7814;DHT22;3952;48.364;16.022;2023-03-01T09:13:50;4.00;99.90
7814;DHT22;3952;48.364;16.022;2023-03-01T09:16:19;4.00;99.90
7814;DHT22;3952;48.364;16.022;2023-03-01T09:18:49;4.00;99.90
7814;DHT22;3952;48.364;16.022;2023-03-01T09:21:18;4.10;99.90
7814;DHT22;3952;48.364;16.022;2023-03-01T09:23:47;4.00;99.90
7814;DHT22;3952;48.364;16.022;2023-03-01T09:26:18;4.10;99.90
7814;DHT22;3952;48.364;16.022;2023-03-01T09:28:47;4.20;99.90
7814;DHT22;3952;48.364;16.022;2023-03-01T09:31:18;4.30;99.90
7814;DHT22;3952;48.364;16.022;2023-03-01T09:33:47;4.50;99.90
7814;DHT22;3952;48.364;16.022;2023-03-01T09:36:16;4.60;99.90
7814;DHT22;3952;48.364;16.022;2023-03-01T09:38:44;4.80;99.90
7814;DHT22;3952;48.364;16.022;2023-03-01T09:41:24;5.00;99.90
7814;DHT22;3952;48.364;16.022;2023-03-01T09:43:58;5.40;99.90
7814;DHT22;3952;48.364;16.022;2023-03-01T09:46:38;5.70;99.90
7814;DHT22;3952;48.364;16.022;2023-03-01T09:49:12;6.10;99.90
7814;DHT22;3952;48.364;16.022;2023-03-01T09:51:42;6.60;99.90
7814;DHT22;3952;48.364;16.022;2023-03-01T09:54:14;7.00;99.90
7814;DHT22;3952;48.364;16.022;2023-03-01T09:56:45;7.40;99.90
7814;DHT22;3952;48.364;16.022;2023-03-01T09:59:21;7.80;99.90
7814;DHT22;3952;48.364;16.022;2023-03-01T10:01:54;8.00;99.90
7814;DHT22;3952;48.364;16.022;2023-03-01T10:04:33;8.30;99.90
7814;DHT22;3952;48.364;16.022;2023-03-01T10:07:14;8.00;99.90
7814;DHT22;3952;48.364;16.022;2023-03-01T10:09:45;8.00;99.90
7814;DHT22;3952;48.364;16.022;2023-03-01T10:12:16;8.10;99.90
7814;DHT22;3952;48.364;16.022;2023-03-01T10:14:53;8.00;99.90
7814;DHT22;3952;48.364;16.022;2023-03-01T10:17:30;7.90;99.90
7814;DHT22;3952;48.364;16.022;2023-03-01T10:20:14;7.70;99.90
7814;DHT22;3952;48.364;16.022;2023-03-01T10:22:42;7.70;99.90
7814;DHT22;3952;48.364;16.022;2023-03-01T10:25:14;7.80;99.90
7814;DHT22;3952;48.364;16.022;2023-03-01T10:27:51;8.00;99.90
7814;DHT22;3952;48.364;16.022;2023-03-01T10:30:22;8.10;99.90
7814;DHT22;3952;48.364;16.022;2023-03-01T10:32:57;7.90;99.90
7814;DHT22;3952;48.364;16.022;2023-03-01T10:35:27;7.60;99.90
7814;DHT22;3952;48.364;16.022;2023-03-01T10:38:03;6.60;99.90
7814;DHT22;3952;48.364;16.022;2023-03-01T10:40:32;7.50;99.90
7814;DHT22;3952;48.364;16.022;2023-03-01T10:43:01;7.40;99.90
7814;DHT22;3952;48.364;16.022;2023-03-01T10:45:35;7.10;99.90
7814;DHT22;3952;48.364;16.022;2023-03-01T10:48:08;7.00;99.90
7814;DHT22;3952;48.364;16.022;2023-03-01T10:50:38;7.10;99.90
7814;DHT22;3952;48.364;16.022;2023-03-01T10:53:22;7.20;99.90
7814;DHT22;3952;48.364;16.022;2023-03-01T10:56:01;7.20;99.90
7814;DHT22;3952;48.364;16.022;2023-03-01T10:58:30;7.20;99.90
7814;DHT22;3952;48.364;16.022;2023-03-01T11:00:58;7.20;99.90
7814;DHT22;3952;48.364;16.022;2023-03-01T11:03:30;7.10;99.90
7814;DHT22;3952;48.364;16.022;2023-03-01T11:06:04;7.10;99.90
7814;DHT22;3952;48.364;16.022;2023-03-01T11:08:34;7.10;99.90
7814;DHT22;3952;48.364;16.022;2023-03-01T11:11:05;7.10;99.90
7814;DHT22;3952;48.364;16.022;2023-03-01T11:13:32;7.20;99.90
7814;DHT22;3952;48.364;16.022;2023-03-01T11:16:02;7.30;99.90
7814;DHT22;3952;48.364;16.022;2023-03-01T11:18:31;7.40;99.90
7814;DHT22;3952;48.364;16.022;2023-03-01T11:20:59;7.50;99.90
7814;DHT22;3952;48.364;16.022;2023-03-01T11:23:29;7.50;99.90
7814;DHT22;3952;48.364;16.022;2023-03-01T11:26:00;7.50;99.90
7814;DHT22;3952;48.364;16.022;2023-03-01T11:28:29;7.50;99.90
7814;DHT22;3952;48.364;16.022;2023-03-01T11:31:00;7.50;99.90
7814;DHT22;3952;48.364;16.022;2023-03-01T11:33:37;7.60;99.90
7814;DHT22;3952;48.364;16.022;2023-03-01T11:36:12;7.70;99.90
7814;DHT22;3952;48.364;16.022;2023-03-01T11:38:40;7.70;99.90
7814;DHT22;3952;48.364;16.022;2023-03-01T11:41:12;7.70;99.90
7814;DHT22;3952;48.364;16.022;2023-03-01T11:43:48;7.60;99.90
7814;DHT22;3952;48.364;16.022;2023-03-01T11:46:50;7.60;99.90
7814;DHT22;3952;48.364;16.022;2023-03-01T11:49:44;7.60;99.90
7814;DHT22;3952;48.364;16.022;2023-03-01T11:52:22;7.60;99.90
7814;DHT22;3952;48.364;16.022;2023-03-01T11:55:03;7.60;99.90
7814;DHT22;3952;48.364;16.022;2023-03-01T11:57:47;7.60;99.90
7814;DHT22;3952;48.364;16.022;2023-03-01T12:00:37;7.60;99.90
7814;DHT22;3952;48.364;16.022;2023-03-01T12:03:30;7.50;99.90
7814;DHT22;3952;48.364;16.022;2023-03-01T12:06:24;7.40;99.90
7814;DHT22;3952;48.364;16.022;2023-03-01T12:09:06;7.40;99.90
7814;DHT22;3952;48.364;16.022;2023-03-01T12:11:56;7.40;99.90
7814;DHT22;3952;48.364;16.022;2023-03-01T12:14:40;7.40;99.90
7814;DHT22;3952;48.364;16.022;2023-03-01T12:17:20;7.50;99.90
7814;DHT22;3952;48.364;16.022;2023-03-01T12:20:02;7.60;99.90
7814;DHT22;3952;48.364;16.022;2023-03-01T12:22:46;7.60;99.90
7814;DHT22;3952;48.364;16.022;2023-03-01T12:25:25;7.60;99.90
7814;DHT22;3952;48.364;16.022;2023-03-01T12:31:21;7.60;99.90
7814;DHT22;3952;48.364;16.022;2023-03-01T12:33:59;7.50;99.90
7814;DHT22;3952;48.364;16.022;2023-03-01T12:37:04;7.50;99.90
7814;DHT22;3952;48.364;16.022;2023-03-01T12:39:44;7.60;99.90
7814;DHT22;3952;48.364;16.022;2023-03-01T12:42:23;7.60;99.90
7814;DHT22;3952;48.364;16.022;2023-03-01T12:45:04;7.60;99.90
7814;DHT22;3952;48.364;16.022;2023-03-01T12:47:54;7.60;99.90
7814;DHT22;3952;48.364;16.022;2023-03-01T12:50:34;7.70;99.90
7814;DHT22;3952;48.364;16.022;2023-03-01T12:53:03;7.80;99.90
7814;DHT22;3952;48.364;16.022;2023-03-01T12:55:34;7.80;99.90
7814;DHT22;3952;48.364;16.022;2023-03-01T12:58:17;7.90;99.90
7814;DHT22;3952;48.364;16.022;2023-03-01T13:01:04;8.00;99.90
7814;DHT22;3952;48.364;16.022;2023-03-01T13:03:42;8.10;99.90
7814;DHT22;3952;48.364;16.022;2023-03-01T13:06:18;8.20;99.90
7814;DHT22;3952;48.364;16.022;2023-03-01T13:08:52;8.30;99.90
7814;DHT22;3952;48.364;16.022;2023-03-01T13:11:23;8.40;99.90
7814;DHT22;3952;48.364;16.022;2023-03-01T13:13:51;8.50;99.90
7814;DHT22;3952;48.364;16.022;2023-03-01T13:19:10;8.60;99.90
7814;DHT22;3952;48.364;16.022;2023-03-01T13:21:40;8.70;99.90
7814;DHT22;3952;48.364;16.022;2023-03-01T13:24:26;8.70;99.90
7814;DHT22;3952;48.364;16.022;2023-03-01T13:27:28;8.70;99.90
7814;DHT22;3952;48.364;16.022;2023-03-01T13:29:57;8.80;99.90
7814;DHT22;3952;48.364;16.022;2023-03-01T13:32:30;8.80;99.90
7814;DHT22;3952;48.364;16.022;2023-03-01T13:34:59;8.80;99.90
7814;DHT22;3952;48.364;16.022;2023-03-01T13:37:32;8.80;99.90
7814;DHT22;3952;48.364;16.022;2023-03-01T13:40:07;8.70;99.90
7814;DHT22;3952;48.364;16.022;2023-03-01T13:42:54;8.60;99.90
7814;DHT22;3952;48.364;16.022;2023-03-01T13:45:31;8.50;99.90
7814;DHT22;3952;48.364;16.022;2023-03-01T13:48:02;8.40;99.90
7814;DHT22;3952;48.364;16.022;2023-03-01T13:50:37;8.30;99.90
7814;DHT22;3952;48.364;16.022;2023-03-01T13:53:06;8.40;99.90
7814;DHT22;3952;48.364;16.022;2023-03-01T13:55:41;8.40;99.90
7814;DHT22;3952;48.364;16.022;2023-03-01T13:58:21;8.50;99.90
7814;DHT22;3952;48.364;16.022;2023-03-01T14:00:59;8.50;99.90
7814;DHT22;3952;48.364;16.022;2023-03-01T14:03:27;8.50;99.90
7814;DHT22;3952;48.364;16.022;2023-03-01T14:06:04;8.50;99.90
7814;DHT22;3952;48.364;16.022;2023-03-01T14:08:34;8.50;99.90
7814;DHT22;3952;48.364;16.022;2023-03-01T14:11:31;8.60;99.90
7814;DHT22;3952;48.364;16.022;2023-03-01T14:14:23;8.60;99.90
7814;DHT22;3952;48.364;16.022;2023-03-01T14:16:58;8.50;99.90
7814;DHT22;3952;48.364;16.022;2023-03-01T14:19:30;8.50;99.90
7814;DHT22;3952;48.364;16.022;2023-03-01T14:22:12;8.50;99.90
7814;DHT22;3952;48.364;16.022;2023-03-01T14:24:47;8.50;99.90
7814;DHT22;3952;48.364;16.022;2023-03-01T14:27:16;8.50;99.90
7814;DHT22;3952;48.364;16.022;2023-03-01T14:29:55;8.50;99.90
7814;DHT22;3952;48.364;16.022;2023-03-01T14:32:25;8.50;99.90
7814;DHT22;3952;48.364;16.022;2023-03-01T14:34:54;8.50;99.90
7814;DHT22;3952;48.364;16.022;2023-03-01T14:37:24;8.50;99.90
7814;DHT22;3952;48.364;16.022;2023-03-01T14:39:52;8.50;99.90
7814;DHT22;3952;48.364;16.022;2023-03-01T14:42:21;8.40;99.90
7814;DHT22;3952;48.364;16.022;2023-03-01T14:44:52;8.40;99.90
7814;DHT22;3952;48.364;16.022;2023-03-01T14:47:26;8.30;99.90
7814;DHT22;3952;48.364;16.022;2023-03-01T14:49:57;8.30;99.90
7814;DHT22;3952;48.364;16.022;2023-03-01T14:52:34;8.30;99.90
7814;DHT22;3952;48.364;16.022;2023-03-01T14:55:05;8.30;99.90
7814;DHT22;3952;48.364;16.022;2023-03-01T14:57:32;8.30;99.90
7814;DHT22;3952;48.364;16.022;2023-03-01T15:00:03;8.20;99.90
7814;DHT22;3952;48.364;16.022;2023-03-01T15:02:34;8.20;99.90
7814;DHT22;3952;48.364;16.022;2023-03-01T15:05:03;8.20;99.90
7814;DHT22;3952;48.364;16.022;2023-03-01T15:07:35;8.10;99.90
7814;DHT22;3952;48.364;16.022;2023-03-01T15:10:05;8.10;99.90
7814;DHT22;3952;48.364;16.022;2023-03-01T15:12:36;8.10;99.90
7814;DHT22;3952;48.364;16.022;2023-03-01T15:15:20;8.10;99.90
7814;DHT22;3952;48.364;16.022;2023-03-01T15:17:58;8.00;99.90
7814;DHT22;3952;48.364;16.022;2023-03-01T15:20:28;8.00;99.90
7814;DHT22;3952;48.364;16.022;2023-03-01T15:22:58;8.00;99.90
7814;DHT22;3952;48.364;16.022;2023-03-01T15:25:27;7.90;99.90
7814;DHT22;3952;48.364;16.022;2023-03-01T15:27:57;7.90;99.90
7814;DHT22;3952;48.364;16.022;2023-03-01T15:30:29;7.90;99.90
7814;DHT22;3952;48.364;16.022;2023-03-01T15:33:25;7.90;99.90
7814;DHT22;3952;48.364;16.022;2023-03-01T15:35:55;7.90;99.90
7814;DHT22;3952;48.364;16.022;2023-03-01T15:38:32;7.90;99.90
7814;DHT22;3952;48.364;16.022;2023-03-01T15:41:00;7.90;99.90
7814;DHT22;3952;48.364;16.022;2023-03-01T15:43:40;7.90;99.90
7814;DHT22;3952;48.364;16.022;2023-03-01T15:46:23;7.80;99.90
7814;DHT22;3952;48.364;16.022;2023-03-01T15:48:53;7.80;99.90
7814;DHT22;3952;48.364;16.022;2023-03-01T15:51:33;7.90;99.90
7814;DHT22;3952;48.364;16.022;2023-03-01T15:54:04;7.80;99.90
7814;DHT22;3952;48.364;16.022;2023-03-01T15:56:32;7.80;99.90
7814;DHT22;3952;48.364;16.022;2023-03-01T15:59:02;7.80;99.90
7814;DHT22;3952;48.364;16.022;2023-03-01T16:01:31;7.80;99.90
7814;DHT22;3952;48.364;16.022;2023-03-01T16:04:00;7.80;99.90
7814;DHT22;3952;48.364;16.022;2023-03-01T16:06:27;7.80;99.90
7814;DHT22;3952;48.364;16.022;2023-03-01T16:08:55;7.80;99.90
7814;DHT22;3952;48.364;16.022;2023-03-01T16:11:22;7.80;99.90
7814;DHT22;3952;48.364;16.022;2023-03-01T16:13:49;7.80;99.90
7814;DHT22;3952;48.364;16.022;2023-03-01T16:16:17;7.80;99.90
7814;DHT22;3952;48.364;16.022;2023-03-01T16:18:46;7.80;99.90
7814;DHT22;3952;48.364;16.022;2023-03-01T16:21:15;7.70;99.90
7814;DHT22;3952;48.364;16.022;2023-03-01T16:23:43;7.70;99.90
7814;DHT22;3952;48.364;16.022;2023-03-01T16:26:12;7.70;99.90
7814;DHT22;3952;48.364;16.022;2023-03-01T16:28:40;7.70;99.90
7814;DHT22;3952;48.364;16.022;2023-03-01T16:31:07;7.70;99.90